sensor_id;sensor_type;location;lat;lon;timestamp;P1;durP1;ratioP1;P2;durP2;ratioP2
52866;SDS011;38739;53.324;6.862;2023-03-05T00:01:15;9.52;;;1.35;;
52866;SDS011;38739;53.324;6.862;2023-03-05T00:03:49;10.20;;;1.50;;
52866;SDS011;38739;53.324;6.862;2023-03-05T00:06:19;9.43;;;1.30;;
52866;SDS011;38739;53.324;6.862;2023-03-05T00:08:46;8.93;;;1.35;;
52866;SDS011;38739;53.324;6.862;2023-03-05T00:11:13;9.15;;;1.45;;
52866;SDS011;38739;53.324;6.862;2023-03-05T00:13:39;8.35;;;1.13;;
52866;SDS011;38739;53.324;6.862;2023-03-05T00:16:08;7.47;;;1.10;;
52866;SDS011;38739;53.324;6.862;2023-03-05T00:18:36;11.20;;;1.25;;
52866;SDS011;38739;53.324;6.862;2023-03-05T00:21:03;7.25;;;1.70;;
52866;SDS011;38739;53.324;6.862;2023-03-05T00:23:29;8.38;;;1.00;;
52866;SDS011;38739;53.324;6.862;2023-03-05T00:25:55;8.50;;;1.02;;
52866;SDS011;38739;53.324;6.862;2023-03-05T00:28:21;7.47;;;1.30;;
52866;SDS011;38739;53.324;6.862;2023-03-05T00:30:47;8.50;;;1.20;;
52866;SDS011;38739;53.324;6.862;2023-03-05T00:33:12;6.85;;;0.80;;
52866;SDS011;38739;53.324;6.862;2023-03-05T00:35:39;6.55;;;1.05;;
52866;SDS011;38739;53.324;6.862;2023-03-05T00:38:09;9.80;;;1.10;;
52866;SDS011;38739;53.324;6.862;2023-03-05T00:40:36;12.77;;;1.90;;
52866;SDS011;38739;53.324;6.862;2023-03-05T00:43:03;12.77;;;1.55;;
52866;SDS011;38739;53.324;6.862;2023-03-05T00:45:29;5.82;;;1.00;;
52866;SDS011;38739;53.324;6.862;2023-03-05T00:47:55;10.98;;;1.00;;
52866;SDS011;38739;53.324;6.862;2023-03-05T00:50:21;10.77;;;1.38;;
52866;SDS011;38739;53.324;6.862;2023-03-05T00:52:47;8.57;;;1.85;;
52866;SDS011;38739;53.324;6.862;2023-03-05T00:55:12;8.93;;;1.45;;
52866;SDS011;38739;53.324;6.862;2023-03-05T00:57:38;8.00;;;1.08;;
52866;SDS011;38739;53.324;6.862;2023-03-05T01:00:04;5.97;;;0.90;;
52866;SDS011;38739;53.324;6.862;2023-03-05T01:02:31;10.70;;;1.30;;
52866;SDS011;38739;53.324;6.862;2023-03-05T01:04:57;6.82;;;1.05;;
52866;SDS011;38739;53.324;6.862;2023-03-05T01:07:25;9.13;;;1.10;;
52866;SDS011;38739;53.324;6.862;2023-03-05T01:09:51;4.28;;;0.80;;
52866;SDS011;38739;53.324;6.862;2023-03-05T01:12:17;6.80;;;0.90;;
52866;SDS011;38739;53.324;6.862;2023-03-05T01:14:42;4.10;;;0.70;;
52866;SDS011;38739;53.324;6.862;2023-03-05T01:17:08;9.07;;;1.10;;
52866;SDS011;38739;53.324;6.862;2023-03-05T01:19:34;5.60;;;0.80;;
52866;SDS011;38739;53.324;6.862;2023-03-05T01:22:02;8.00;;;1.20;;
52866;SDS011;38739;53.324;6.862;2023-03-05T01:24:29;9.43;;;1.00;;
52866;SDS011;38739;53.324;6.862;2023-03-05T01:26:56;5.82;;;1.25;;
52866;SDS011;38739;53.324;6.862;2023-03-05T01:29:22;10.60;;;1.42;;
52866;SDS011;38739;53.324;6.862;2023-03-05T01:31:48;7.00;;;0.90;;
52866;SDS011;38739;53.324;6.862;2023-03-05T01:34:13;8.25;;;1.45;;
52866;SDS011;38739;53.324;6.862;2023-03-05T01:36:40;6.70;;;1.17;;
52866;SDS011;38739;53.324;6.862;2023-03-05T01:39:06;8.52;;;1.23;;
52866;SDS011;38739;53.324;6.862;2023-03-05T01:41:32;7.93;;;1.13;;
52866;SDS011;38739;53.324;6.862;2023-03-05T01:43:59;11.07;;;1.75;;
52866;SDS011;38739;53.324;6.862;2023-03-05T01:51:53;6.30;;;1.00;;
52866;SDS011;38739;53.324;6.862;2023-03-05T01:54:31;11.18;;;1.00;;
52866;SDS011;38739;53.324;6.862;2023-03-05T01:57:05;6.22;;;1.05;;
52866;SDS011;38739;53.324;6.862;2023-03-05T01:59:34;10.48;;;1.20;;
52866;SDS011;38739;53.324;6.862;2023-03-05T02:02:02;7.78;;;0.90;;
52866;SDS011;38739;53.324;6.862;2023-03-05T02:04:30;5.10;;;0.95;;
52866;SDS011;38739;53.324;6.862;2023-03-05T02:07:00;9.63;;;1.38;;
52866;SDS011;38739;53.324;6.862;2023-03-05T02:09:27;6.88;;;0.98;;
52866;SDS011;38739;53.324;6.862;2023-03-05T02:11:53;5.03;;;0.85;;
52866;SDS011;38739;53.324;6.862;2023-03-05T02:14:20;6.30;;;1.10;;
52866;SDS011;38739;53.324;6.862;2023-03-05T02:16:48;6.93;;;0.98;;
52866;SDS011;38739;53.324;6.862;2023-03-05T02:19:14;4.70;;;0.80;;
52866;SDS011;38739;53.324;6.862;2023-03-05T02:21:44;5.35;;;0.82;;
52866;SDS011;38739;53.324;6.862;2023-03-05T02:24:16;9.05;;;1.10;;
52866;SDS011;38739;53.324;6.862;2023-03-05T02:27:02;4.28;;;0.68;;
52866;SDS011;38739;53.324;6.862;2023-03-05T02:29:29;8.00;;;1.05;;
52866;SDS011;38739;53.324;6.862;2023-03-05T02:31:56;5.60;;;0.60;;
52866;SDS011;38739;53.324;6.862;2023-03-05T02:34:22;4.30;;;1.13;;
52866;SDS011;38739;53.324;6.862;2023-03-05T02:36:48;6.45;;;0.80;;
52866;SDS011;38739;53.324;6.862;2023-03-05T02:39:19;4.72;;;1.00;;
52866;SDS011;38739;53.324;6.862;2023-03-05T02:41:45;3.83;;;0.80;;
52866;SDS011;38739;53.324;6.862;2023-03-05T02:44:13;2.28;;;0.55;;
52866;SDS011;38739;53.324;6.862;2023-03-05T02:46:39;7.25;;;1.08;;
52866;SDS011;38739;53.324;6.862;2023-03-05T02:49:05;5.90;;;0.80;;
52866;SDS011;38739;53.324;6.862;2023-03-05T02:51:30;6.03;;;0.70;;
52866;SDS011;38739;53.324;6.862;2023-03-05T02:53:56;4.30;;;0.63;;
52866;SDS011;38739;53.324;6.862;2023-03-05T02:56:22;8.73;;;1.15;;
52866;SDS011;38739;53.324;6.862;2023-03-05T02:58:48;6.22;;;0.63;;
52866;SDS011;38739;53.324;6.862;2023-03-05T03:01:13;8.55;;;0.82;;
52866;SDS011;38739;53.324;6.862;2023-03-05T03:03:39;6.68;;;0.88;;
52866;SDS011;38739;53.324;6.862;2023-03-05T03:06:07;10.57;;;1.05;;
52866;SDS011;38739;53.324;6.862;2023-03-05T03:08:33;10.23;;;0.90;;
52866;SDS011;38739;53.324;6.862;2023-03-05T03:11:06;4.93;;;0.80;;
52866;SDS011;38739;53.324;6.862;2023-03-05T03:13:34;5.60;;;0.77;;
52866;SDS011;38739;53.324;6.862;2023-03-05T03:16:01;5.90;;;0.90;;
52866;SDS011;38739;53.324;6.862;2023-03-05T03:18:31;3.75;;;0.73;;
52866;SDS011;38739;53.324;6.862;2023-03-05T03:20:57;5.43;;;1.00;;
52866;SDS011;38739;53.324;6.862;2023-03-05T03:23:23;3.05;;;0.60;;
52866;SDS011;38739;53.324;6.862;2023-03-05T03:25:51;3.20;;;0.60;;
52866;SDS011;38739;53.324;6.862;2023-03-05T03:28:17;4.22;;;0.80;;
52866;SDS011;38739;53.324;6.862;2023-03-05T03:30:43;6.07;;;1.05;;
52866;SDS011;38739;53.324;6.862;2023-03-05T03:33:09;4.53;;;0.65;;
52866;SDS011;38739;53.324;6.862;2023-03-05T03:35:35;4.78;;;0.65;;
52866;SDS011;38739;53.324;6.862;2023-03-05T03:38:01;5.22;;;0.70;;
52866;SDS011;38739;53.324;6.862;2023-03-05T03:40:26;4.25;;;0.70;;
52866;SDS011;38739;53.324;6.862;2023-03-05T03:42:52;5.85;;;0.77;;
52866;SDS011;38739;53.324;6.862;2023-03-05T03:45:19;2.13;;;0.60;;
52866;SDS011;38739;53.324;6.862;2023-03-05T03:47:48;2.20;;;0.40;;
52866;SDS011;38739;53.324;6.862;2023-03-05T03:50:14;3.97;;;0.60;;
52866;SDS011;38739;53.324;6.862;2023-03-05T03:52:45;3.13;;;1.00;;
52866;SDS011;38739;53.324;6.862;2023-03-05T03:55:11;3.50;;;0.80;;
52866;SDS011;38739;53.324;6.862;2023-03-05T03:57:37;5.13;;;0.80;;
52866;SDS011;38739;53.324;6.862;2023-03-05T04:00:03;4.53;;;0.80;;
52866;SDS011;38739;53.324;6.862;2023-03-05T04:02:34;5.43;;;0.90;;
52866;SDS011;38739;53.324;6.862;2023-03-05T04:05:00;7.43;;;0.70;;
52866;SDS011;38739;53.324;6.862;2023-03-05T04:07:26;5.70;;;0.80;;
52866;SDS011;38739;53.324;6.862;2023-03-05T04:09:51;5.25;;;0.75;;
52866;SDS011;38739;53.324;6.862;2023-03-05T04:12:17;6.03;;;1.98;;
52866;SDS011;38739;53.324;6.862;2023-03-05T04:14:43;4.00;;;0.75;;
52866;SDS011;38739;53.324;6.862;2023-03-05T04:17:10;6.70;;;0.70;;
52866;SDS011;38739;53.324;6.862;2023-03-05T04:19:36;5.15;;;1.38;;
52866;SDS011;38739;53.324;6.862;2023-03-05T04:22:02;4.97;;;0.80;;
52866;SDS011;38739;53.324;6.862;2023-03-05T04:24:31;3.05;;;0.70;;
52866;SDS011;38739;53.324;6.862;2023-03-05T04:26:57;6.68;;;1.15;;
52866;SDS011;38739;53.324;6.862;2023-03-05T04:29:22;6.45;;;0.90;;
52866;SDS011;38739;53.324;6.862;2023-03-05T04:31:48;5.10;;;0.75;;
52866;SDS011;38739;53.324;6.862;2023-03-05T04:34:14;4.53;;;0.80;;
52866;SDS011;38739;53.324;6.862;2023-03-05T04:36:39;6.60;;;1.17;;
52866;SDS011;38739;53.324;6.862;2023-03-05T04:39:05;6.00;;;0.80;;
52866;SDS011;38739;53.324;6.862;2023-03-05T04:41:31;5.22;;;0.80;;
52866;SDS011;38739;53.324;6.862;2023-03-05T04:43:56;6.32;;;1.20;;
52866;SDS011;38739;53.324;6.862;2023-03-05T04:46:22;5.30;;;0.90;;
52866;SDS011;38739;53.324;6.862;2023-03-05T04:48:48;5.88;;;0.70;;
52866;SDS011;38739;53.324;6.862;2023-03-05T04:51:13;5.10;;;0.77;;
52866;SDS011;38739;53.324;6.862;2023-03-05T04:53:41;8.50;;;1.38;;
52866;SDS011;38739;53.324;6.862;2023-03-05T04:56:10;7.70;;;1.15;;
52866;SDS011;38739;53.324;6.862;2023-03-05T04:58:36;6.00;;;0.90;;
52866;SDS011;38739;53.324;6.862;2023-03-05T05:01:02;9.70;;;1.23;;
52866;SDS011;38739;53.324;6.862;2023-03-05T05:03:28;7.38;;;1.00;;
52866;SDS011;38739;53.324;6.862;2023-03-05T05:05:55;6.22;;;0.70;;
52866;SDS011;38739;53.324;6.862;2023-03-05T05:08:23;4.43;;;0.70;;
52866;SDS011;38739;53.324;6.862;2023-03-05T05:10:56;2.67;;;0.68;;
52866;SDS011;38739;53.324;6.862;2023-03-05T05:13:23;4.40;;;0.60;;
52866;SDS011;38739;53.324;6.862;2023-03-05T05:15:49;4.95;;;0.88;;
52866;SDS011;38739;53.324;6.862;2023-03-05T05:18:14;3.00;;;0.50;;
52866;SDS011;38739;53.324;6.862;2023-03-05T05:20:40;3.65;;;0.55;;
52866;SDS011;38739;53.324;6.862;2023-03-05T05:23:06;2.08;;;0.50;;
52866;SDS011;38739;53.324;6.862;2023-03-05T05:25:32;4.18;;;0.55;;
52866;SDS011;38739;53.324;6.862;2023-03-05T05:27:57;3.85;;;0.50;;
52866;SDS011;38739;53.324;6.862;2023-03-05T05:30:23;2.88;;;0.63;;
52866;SDS011;38739;53.324;6.862;2023-03-05T05:32:48;2.92;;;0.52;;
52866;SDS011;38739;53.324;6.862;2023-03-05T05:35:14;4.65;;;0.68;;
52866;SDS011;38739;53.324;6.862;2023-03-05T05:37:40;3.97;;;0.93;;
52866;SDS011;38739;53.324;6.862;2023-03-05T05:40:06;3.33;;;0.65;;
52866;SDS011;38739;53.324;6.862;2023-03-05T05:42:32;4.28;;;0.50;;
52866;SDS011;38739;53.324;6.862;2023-03-05T05:44:58;4.00;;;1.23;;
52866;SDS011;38739;53.324;6.862;2023-03-05T05:47:26;4.57;;;0.60;;
52866;SDS011;38739;53.324;6.862;2023-03-05T05:49:53;4.90;;;0.60;;
52866;SDS011;38739;53.324;6.862;2023-03-05T05:52:19;4.50;;;0.75;;
52866;SDS011;38739;53.324;6.862;2023-03-05T05:54:45;8.20;;;0.77;;
52866;SDS011;38739;53.324;6.862;2023-03-05T05:57:11;3.78;;;0.70;;
52866;SDS011;38739;53.324;6.862;2023-03-05T05:59:37;7.47;;;0.70;;
52866;SDS011;38739;53.324;6.862;2023-03-05T06:02:03;6.75;;;0.70;;
52866;SDS011;38739;53.324;6.862;2023-03-05T06:04:33;5.95;;;1.00;;
52866;SDS011;38739;53.324;6.862;2023-03-05T06:06:59;4.25;;;0.88;;
52866;SDS011;38739;53.324;6.862;2023-03-05T06:09:25;7.10;;;0.98;;
52866;SDS011;38739;53.324;6.862;2023-03-05T06:11:51;7.50;;;1.10;;
52866;SDS011;38739;53.324;6.862;2023-03-05T06:14:17;8.13;;;1.08;;
52866;SDS011;38739;53.324;6.862;2023-03-05T06:16:43;6.88;;;1.08;;
52866;SDS011;38739;53.324;6.862;2023-03-05T06:19:13;8.93;;;1.20;;
52866;SDS011;38739;53.324;6.862;2023-03-05T06:21:42;6.00;;;1.00;;
52866;SDS011;38739;53.324;6.862;2023-03-05T06:24:08;5.97;;;1.30;;
52866;SDS011;38739;53.324;6.862;2023-03-05T06:26:34;6.68;;;1.25;;
52866;SDS011;38739;53.324;6.862;2023-03-05T06:29:00;9.73;;;1.10;;
52866;SDS011;38739;53.324;6.862;2023-03-05T06:31:27;5.82;;;1.10;;
52866;SDS011;38739;53.324;6.862;2023-03-05T06:33:55;8.32;;;1.30;;
52866;SDS011;38739;53.324;6.862;2023-03-05T06:36:22;11.18;;;1.50;;
52866;SDS011;38739;53.324;6.862;2023-03-05T06:38:49;7.35;;;1.33;;
52866;SDS011;38739;53.324;6.862;2023-03-05T06:41:16;5.05;;;1.10;;
52866;SDS011;38739;53.324;6.862;2023-03-05T06:43:44;6.93;;;1.30;;
52866;SDS011;38739;53.324;6.862;2023-03-05T06:46:12;10.18;;;1.10;;
52866;SDS011;38739;53.324;6.862;2023-03-05T06:48:41;10.23;;;1.15;;
52866;SDS011;38739;53.324;6.862;2023-03-05T06:51:17;5.30;;;1.02;;
52866;SDS011;38739;53.324;6.862;2023-03-05T06:53:45;8.65;;;1.20;;
52866;SDS011;38739;53.324;6.862;2023-03-05T06:56:12;5.82;;;1.10;;
52866;SDS011;38739;53.324;6.862;2023-03-05T06:58:40;8.73;;;1.30;;
52866;SDS011;38739;53.324;6.862;2023-03-05T07:01:08;7.05;;;1.30;;
52866;SDS011;38739;53.324;6.862;2023-03-05T07:03:34;14.00;;;1.30;;
52866;SDS011;38739;53.324;6.862;2023-03-05T07:06:04;6.05;;;1.10;;
52866;SDS011;38739;53.324;6.862;2023-03-05T07:08:32;12.55;;;1.50;;
52866;SDS011;38739;53.324;6.862;2023-03-05T07:10:58;8.90;;;1.40;;
52866;SDS011;38739;53.324;6.862;2023-03-05T07:13:24;6.40;;;1.80;;
52866;SDS011;38739;53.324;6.862;2023-03-05T07:15:50;5.90;;;1.23;;
52866;SDS011;38739;53.324;6.862;2023-03-05T07:18:16;8.93;;;1.33;;
52866;SDS011;38739;53.324;6.862;2023-03-05T07:20:41;7.28;;;1.10;;
52866;SDS011;38739;53.324;6.862;2023-03-05T07:23:07;8.07;;;1.05;;
52866;SDS011;38739;53.324;6.862;2023-03-05T07:25:36;4.65;;;1.20;;
52866;SDS011;38739;53.324;6.862;2023-03-05T07:28:05;9.27;;;1.05;;
52866;SDS011;38739;53.324;6.862;2023-03-05T07:30:32;8.00;;;1.17;;
52866;SDS011;38739;53.324;6.862;2023-03-05T07:32:58;4.45;;;0.80;;
52866;SDS011;38739;53.324;6.862;2023-03-05T07:35:24;10.32;;;1.17;;
52866;SDS011;38739;53.324;6.862;2023-03-05T07:37:50;8.25;;;1.00;;
52866;SDS011;38739;53.324;6.862;2023-03-05T07:40:16;5.60;;;0.90;;
52866;SDS011;38739;53.324;6.862;2023-03-05T07:42:42;4.50;;;0.80;;
52866;SDS011;38739;53.324;6.862;2023-03-05T07:45:08;7.32;;;1.00;;
52866;SDS011;38739;53.324;6.862;2023-03-05T07:47:34;7.55;;;1.13;;
52866;SDS011;38739;53.324;6.862;2023-03-05T07:50:00;7.53;;;1.20;;
52866;SDS011;38739;53.324;6.862;2023-03-05T07:52:26;5.75;;;1.13;;
52866;SDS011;38739;53.324;6.862;2023-03-05T07:54:51;7.40;;;1.10;;
52866;SDS011;38739;53.324;6.862;2023-03-05T07:57:17;6.65;;;1.10;;
52866;SDS011;38739;53.324;6.862;2023-03-05T07:59:43;8.57;;;1.02;;
52866;SDS011;38739;53.324;6.862;2023-03-05T08:02:09;11.20;;;1.13;;
52866;SDS011;38739;53.324;6.862;2023-03-05T08:04:37;9.38;;;1.00;;
52866;SDS011;38739;53.324;6.862;2023-03-05T08:07:14;6.88;;;1.33;;
52866;SDS011;38739;53.324;6.862;2023-03-05T08:10:04;10.45;;;1.10;;
52866;SDS011;38739;53.324;6.862;2023-03-05T08:12:31;11.07;;;1.27;;
52866;SDS011;38739;53.324;6.862;2023-03-05T08:14:56;9.10;;;0.90;;
52866;SDS011;38739;53.324;6.862;2023-03-05T08:17:22;8.05;;;1.23;;
52866;SDS011;38739;53.324;6.862;2023-03-05T08:19:48;6.20;;;1.10;;
52866;SDS011;38739;53.324;6.862;2023-03-05T08:22:14;8.25;;;1.58;;
52866;SDS011;38739;53.324;6.862;2023-03-05T08:24:41;7.93;;;1.60;;
52866;SDS011;38739;53.324;6.862;2023-03-05T08:27:07;8.13;;;1.10;;
52866;SDS011;38739;53.324;6.862;2023-03-05T08:29:33;5.57;;;0.93;;
52866;SDS011;38739;53.324;6.862;2023-03-05T08:31:59;4.35;;;0.68;;
52866;SDS011;38739;53.324;6.862;2023-03-05T08:34:25;4.60;;;0.77;;
52866;SDS011;38739;53.324;6.862;2023-03-05T08:36:50;7.18;;;0.82;;
52866;SDS011;38739;53.324;6.862;2023-03-05T08:39:17;7.72;;;0.95;;
52866;SDS011;38739;53.324;6.862;2023-03-05T08:41:43;2.97;;;0.50;;
52866;SDS011;38739;53.324;6.862;2023-03-05T08:44:09;2.83;;;0.57;;
52866;SDS011;38739;53.324;6.862;2023-03-05T08:46:38;3.70;;;0.50;;
52866;SDS011;38739;53.324;6.862;2023-03-05T08:49:08;5.80;;;0.60;;
52866;SDS011;38739;53.324;6.862;2023-03-05T08:51:34;5.40;;;0.90;;
52866;SDS011;38739;53.324;6.862;2023-03-05T08:54:00;8.00;;;0.70;;
52866;SDS011;38739;53.324;6.862;2023-03-05T08:56:27;7.40;;;0.95;;
52866;SDS011;38739;53.324;6.862;2023-03-05T08:58:55;6.45;;;1.00;;
52866;SDS011;38739;53.324;6.862;2023-03-05T09:01:21;7.53;;;1.10;;
52866;SDS011;38739;53.324;6.862;2023-03-05T09:03:47;13.02;;;1.15;;
52866;SDS011;38739;53.324;6.862;2023-03-05T09:06:13;5.68;;;0.70;;
52866;SDS011;38739;53.324;6.862;2023-03-05T09:08:39;4.55;;;0.60;;
52866;SDS011;38739;53.324;6.862;2023-03-05T09:11:05;7.25;;;0.82;;
52866;SDS011;38739;53.324;6.862;2023-03-05T09:13:33;5.93;;;0.80;;
52866;SDS011;38739;53.324;6.862;2023-03-05T09:16:00;6.75;;;0.57;;
52866;SDS011;38739;53.324;6.862;2023-03-05T09:18:28;3.90;;;0.63;;
52866;SDS011;38739;53.324;6.862;2023-03-05T09:20:54;3.88;;;0.52;;
52866;SDS011;38739;53.324;6.862;2023-03-05T09:23:21;3.88;;;0.50;;
52866;SDS011;38739;53.324;6.862;2023-03-05T09:25:49;1.60;;;0.35;;
52866;SDS011;38739;53.324;6.862;2023-03-05T09:28:15;3.08;;;0.45;;
52866;SDS011;38739;53.324;6.862;2023-03-05T09:30:41;2.78;;;0.45;;
52866;SDS011;38739;53.324;6.862;2023-03-05T09:33:07;2.35;;;0.57;;
52866;SDS011;38739;53.324;6.862;2023-03-05T09:35:33;6.65;;;0.75;;
52866;SDS011;38739;53.324;6.862;2023-03-05T09:38:00;1.67;;;0.50;;
52866;SDS011;38739;53.324;6.862;2023-03-05T09:40:37;4.80;;;0.95;;
52866;SDS011;38739;53.324;6.862;2023-03-05T09:45:43;5.35;;;3.03;;
52866;SDS011;38739;53.324;6.862;2023-03-05T09:48:25;14.15;;;6.00;;
52866;SDS011;38739;53.324;6.862;2023-03-05T09:51:24;10.07;;;5.15;;
52866;SDS011;38739;53.324;6.862;2023-03-05T09:54:02;12.35;;;6.10;;
52866;SDS011;38739;53.324;6.862;2023-03-05T09:56:35;11.20;;;4.40;;
52866;SDS011;38739;53.324;6.862;2023-03-05T10:02:04;6.15;;;1.35;;
52866;SDS011;38739;53.324;6.862;2023-03-05T10:04:43;5.85;;;1.15;;
52866;SDS011;38739;53.324;6.862;2023-03-05T10:07:38;7.40;;;1.20;;
52866;SDS011;38739;53.324;6.862;2023-03-05T10:12:44;5.05;;;1.15;;
52866;SDS011;38739;53.324;6.862;2023-03-05T10:21:00;2.90;;;0.73;;
52866;SDS011;38739;53.324;6.862;2023-03-05T10:23:50;5.47;;;0.80;;
52866;SDS011;38739;53.324;6.862;2023-03-05T10:26:51;1.63;;;0.40;;
52866;SDS011;38739;53.324;6.862;2023-03-05T10:32:04;5.25;;;0.95;;
52866;SDS011;38739;53.324;6.862;2023-03-05T10:40:35;6.70;;;0.82;;
52866;SDS011;38739;53.324;6.862;2023-03-05T10:43:34;4.43;;;0.88;;
52866;SDS011;38739;53.324;6.862;2023-03-05T10:46:08;3.65;;;0.85;;
52866;SDS011;38739;53.324;6.862;2023-03-05T10:51:18;3.88;;;0.80;;
52866;SDS011;38739;53.324;6.862;2023-03-05T10:53:53;3.90;;;0.93;;
52866;SDS011;38739;53.324;6.862;2023-03-05T10:56:42;6.15;;;0.80;;
52866;SDS011;38739;53.324;6.862;2023-03-05T10:59:11;7.97;;;0.90;;
52866;SDS011;38739;53.324;6.862;2023-03-05T11:01:37;6.05;;;0.90;;
52866;SDS011;38739;53.324;6.862;2023-03-05T11:04:03;4.72;;;0.85;;
52866;SDS011;38739;53.324;6.862;2023-03-05T11:06:51;5.28;;;0.57;;
52866;SDS011;38739;53.324;6.862;2023-03-05T11:17:47;6.30;;;0.80;;
52866;SDS011;38739;53.324;6.862;2023-03-05T11:20:35;9.10;;;0.90;;
52866;SDS011;38739;53.324;6.862;2023-03-05T11:25:50;6.85;;;2.70;;
52866;SDS011;38739;53.324;6.862;2023-03-05T11:28:32;14.80;;;6.63;;
52866;SDS011;38739;53.324;6.862;2023-03-05T11:33:40;3.35;;;0.80;;
52866;SDS011;38739;53.324;6.862;2023-03-05T11:36:23;5.53;;;0.77;;
52866;SDS011;38739;53.324;6.862;2023-03-05T11:41:38;5.38;;;0.75;;
52866;SDS011;38739;53.324;6.862;2023-03-05T11:44:46;6.05;;;1.00;;
52866;SDS011;38739;53.324;6.862;2023-03-05T11:49:46;7.43;;;1.63;;
52866;SDS011;38739;53.324;6.862;2023-03-05T11:52:17;4.30;;;1.27;;
52866;SDS011;38739;53.324;6.862;2023-03-05T11:54:53;4.97;;;1.13;;
52866;SDS011;38739;53.324;6.862;2023-03-05T11:57:26;6.88;;;1.20;;
52866;SDS011;38739;53.324;6.862;2023-03-05T11:59:59;6.45;;;1.00;;
52866;SDS011;38739;53.324;6.862;2023-03-05T12:02:32;7.13;;;0.93;;
52866;SDS011;38739;53.324;6.862;2023-03-05T12:05:00;5.85;;;1.00;;
52866;SDS011;38739;53.324;6.862;2023-03-05T12:07:38;4.32;;;0.77;;
52866;SDS011;38739;53.324;6.862;2023-03-05T12:10:15;5.72;;;0.85;;
52866;SDS011;38739;53.324;6.862;2023-03-05T12:12:47;5.35;;;0.90;;
52866;SDS011;38739;53.324;6.862;2023-03-05T12:15:33;5.97;;;1.13;;
52866;SDS011;38739;53.324;6.862;2023-03-05T12:18:13;6.20;;;1.00;;
52866;SDS011;38739;53.324;6.862;2023-03-05T12:24:31;5.25;;;0.85;;
52866;SDS011;38739;53.324;6.862;2023-03-05T12:37:55;3.13;;;0.70;;
52866;SDS011;38739;53.324;6.862;2023-03-05T12:40:24;4.28;;;0.60;;
52866;SDS011;38739;53.324;6.862;2023-03-05T12:45:33;3.90;;;0.65;;
52866;SDS011;38739;53.324;6.862;2023-03-05T12:52:52;3.20;;;0.88;;
52866;SDS011;38739;53.324;6.862;2023-03-05T12:55:21;3.53;;;1.00;;
52866;SDS011;38739;53.324;6.862;2023-03-05T12:57:57;3.13;;;0.60;;
52866;SDS011;38739;53.324;6.862;2023-03-05T13:00:51;4.05;;;0.80;;
52866;SDS011;38739;53.324;6.862;2023-03-05T13:03:31;2.85;;;0.57;;
52866;SDS011;38739;53.324;6.862;2023-03-05T13:05:59;7.18;;;0.82;;
52866;SDS011;38739;53.324;6.862;2023-03-05T13:08:28;3.10;;;0.80;;
52866;SDS011;38739;53.324;6.862;2023-03-05T13:11:23;3.75;;;0.70;;
52866;SDS011;38739;53.324;6.862;2023-03-05T13:14:05;3.63;;;0.90;;
52866;SDS011;38739;53.324;6.862;2023-03-05T13:16:52;6.82;;;0.98;;
52866;SDS011;38739;53.324;6.862;2023-03-05T13:19:18;5.63;;;1.17;;
52866;SDS011;38739;53.324;6.862;2023-03-05T13:21:45;4.38;;;1.20;;
52866;SDS011;38739;53.324;6.862;2023-03-05T13:24:25;3.53;;;0.70;;
52866;SDS011;38739;53.324;6.862;2023-03-05T13:26:53;4.80;;;0.60;;
52866;SDS011;38739;53.324;6.862;2023-03-05T13:29:20;6.07;;;0.90;;
52866;SDS011;38739;53.324;6.862;2023-03-05T13:34:22;5.13;;;0.80;;
52866;SDS011;38739;53.324;6.862;2023-03-05T13:36:55;4.65;;;0.70;;
52866;SDS011;38739;53.324;6.862;2023-03-05T13:39:40;5.63;;;1.00;;
52866;SDS011;38739;53.324;6.862;2023-03-05T13:44:41;8.23;;;1.10;;
52866;SDS011;38739;53.324;6.862;2023-03-05T13:47:17;3.10;;;0.70;;
52866;SDS011;38739;53.324;6.862;2023-03-05T13:49:45;4.10;;;0.80;;
52866;SDS011;38739;53.324;6.862;2023-03-05T13:52:23;6.70;;;1.02;;
52866;SDS011;38739;53.324;6.862;2023-03-05T13:54:50;6.05;;;1.20;;
52866;SDS011;38739;53.324;6.862;2023-03-05T14:05:54;6.32;;;1.20;;
52866;SDS011;38739;53.324;6.862;2023-03-05T14:08:21;4.38;;;1.25;;
52866;SDS011;38739;53.324;6.862;2023-03-05T14:10:55;5.97;;;1.48;;
52866;SDS011;38739;53.324;6.862;2023-03-05T14:13:24;4.30;;;1.20;;
52866;SDS011;38739;53.324;6.862;2023-03-05T14:16:03;3.53;;;1.10;;
52866;SDS011;38739;53.324;6.862;2023-03-05T14:18:33;4.57;;;1.00;;
52866;SDS011;38739;53.324;6.862;2023-03-05T14:32:17;7.28;;;1.08;;
52866;SDS011;38739;53.324;6.862;2023-03-05T14:34:50;7.63;;;1.52;;
52866;SDS011;38739;53.324;6.862;2023-03-05T14:37:24;7.18;;;1.25;;
52866;SDS011;38739;53.324;6.862;2023-03-05T14:40:03;7.55;;;1.10;;
52866;SDS011;38739;53.324;6.862;2023-03-05T14:42:37;7.55;;;0.80;;
52866;SDS011;38739;53.324;6.862;2023-03-05T14:45:17;7.50;;;0.88;;
52866;SDS011;38739;53.324;6.862;2023-03-05T14:47:54;3.95;;;0.98;;
52866;SDS011;38739;53.324;6.862;2023-03-05T14:50:28;6.00;;;1.10;;
52866;SDS011;38739;53.324;6.862;2023-03-05T14:53:41;5.70;;;0.85;;
52866;SDS011;38739;53.324;6.862;2023-03-05T14:56:30;2.15;;;0.60;;
52866;SDS011;38739;53.324;6.862;2023-03-05T14:58:55;4.53;;;0.80;;
52866;SDS011;38739;53.324;6.862;2023-03-05T15:01:21;4.82;;;0.80;;
52866;SDS011;38739;53.324;6.862;2023-03-05T15:03:59;5.03;;;0.90;;
52866;SDS011;38739;53.324;6.862;2023-03-05T15:06:29;7.05;;;1.10;;
52866;SDS011;38739;53.324;6.862;2023-03-05T15:08:58;8.98;;;1.60;;
52866;SDS011;38739;53.324;6.862;2023-03-05T15:11:24;6.15;;;1.15;;
52866;SDS011;38739;53.324;6.862;2023-03-05T15:13:50;7.00;;;1.00;;
52866;SDS011;38739;53.324;6.862;2023-03-05T15:16:16;3.38;;;0.63;;
52866;SDS011;38739;53.324;6.862;2023-03-05T15:18:43;5.30;;;0.95;;
52866;SDS011;38739;53.324;6.862;2023-03-05T15:21:09;4.47;;;0.70;;
52866;SDS011;38739;53.324;6.862;2023-03-05T15:23:34;5.72;;;1.40;;
52866;SDS011;38739;53.324;6.862;2023-03-05T15:26:06;6.18;;;0.80;;
52866;SDS011;38739;53.324;6.862;2023-03-05T15:28:38;4.78;;;1.02;;
52866;SDS011;38739;53.324;6.862;2023-03-05T15:31:04;5.32;;;1.00;;
52866;SDS011;38739;53.324;6.862;2023-03-05T15:33:33;6.35;;;1.13;;
52866;SDS011;38739;53.324;6.862;2023-03-05T15:35:59;4.20;;;1.13;;
52866;SDS011;38739;53.324;6.862;2023-03-05T15:38:25;7.57;;;0.90;;
52866;SDS011;38739;53.324;6.862;2023-03-05T15:40:51;7.47;;;1.10;;
52866;SDS011;38739;53.324;6.862;2023-03-05T15:43:17;3.95;;;0.75;;
52866;SDS011;38739;53.324;6.862;2023-03-05T15:45:43;4.57;;;0.80;;
52866;SDS011;38739;53.324;6.862;2023-03-05T15:48:10;2.83;;;1.10;;
52866;SDS011;38739;53.324;6.862;2023-03-05T15:50:39;8.13;;;2.22;;
52866;SDS011;38739;53.324;6.862;2023-03-05T15:53:05;7.15;;;1.05;;
52866;SDS011;38739;53.324;6.862;2023-03-05T15:55:35;3.95;;;0.77;;
52866;SDS011;38739;53.324;6.862;2023-03-05T15:58:02;3.50;;;0.60;;
52866;SDS011;38739;53.324;6.862;2023-03-05T16:00:29;3.10;;;0.52;;
52866;SDS011;38739;53.324;6.862;2023-03-05T16:02:55;6.78;;;0.90;;
52866;SDS011;38739;53.324;6.862;2023-03-05T16:05:49;3.80;;;0.88;;
52866;SDS011;38739;53.324;6.862;2023-03-05T16:08:15;5.07;;;1.00;;
52866;SDS011;38739;53.324;6.862;2023-03-05T16:10:41;5.25;;;0.70;;
52866;SDS011;38739;53.324;6.862;2023-03-05T16:13:08;6.72;;;1.02;;
52866;SDS011;38739;53.324;6.862;2023-03-05T16:15:37;6.95;;;0.80;;
52866;SDS011;38739;53.324;6.862;2023-03-05T16:18:07;4.18;;;0.85;;
52866;SDS011;38739;53.324;6.862;2023-03-05T16:20:36;4.85;;;0.80;;
52866;SDS011;38739;53.324;6.862;2023-03-05T16:23:02;7.55;;;0.90;;
52866;SDS011;38739;53.324;6.862;2023-03-05T16:25:29;7.22;;;0.90;;
52866;SDS011;38739;53.324;6.862;2023-03-05T16:27:55;5.88;;;0.93;;
52866;SDS011;38739;53.324;6.862;2023-03-05T16:30:20;5.25;;;0.95;;
52866;SDS011;38739;53.324;6.862;2023-03-05T16:32:46;2.92;;;0.68;;
52866;SDS011;38739;53.324;6.862;2023-03-05T16:35:12;3.92;;;0.90;;